createdAt,value
2022-10-11T00:01:00.471Z,21.70
2022-10-11T00:04:02.284Z,22.15
2022-10-11T00:07:04.099Z,19.67
2022-10-11T00:10:07.114Z,20.15
2022-10-11T00:13:11.071Z,16.73
2022-10-11T00:16:15.506Z,18.75
2022-10-11T00:19:17.432Z,18.85
2022-10-11T00:22:19.120Z,16.63
2022-10-11T00:25:20.721Z,17.35
2022-10-11T00:28:22.498Z,15.20
2022-10-11T00:31:24.247Z,16.33
2022-10-11T00:34:25.916Z,15.63
2022-10-11T00:37:27.694Z,15.85
2022-10-11T00:40:29.319Z,15.45
2022-10-11T00:43:33.264Z,18.30
2022-10-11T00:46:35.155Z,17.23
2022-10-11T00:50:03.516Z,16.33
2022-10-11T00:53:11.320Z,17.85
2022-10-11T00:56:39.812Z,16.20
2022-10-11T00:59:45.555Z,17.53
2022-10-11T01:02:47.586Z,17.13
2022-10-11T01:05:49.641Z,19.27
2022-10-11T01:08:52.786Z,17.27
2022-10-11T01:11:58.631Z,16.85
2022-10-11T01:15:17.244Z,17.00
2022-10-11T01:18:41.570Z,20.33
2022-10-11T01:22:28.878Z,18.75
2022-10-11T01:25:42.331Z,18.77
2022-10-11T01:29:05.702Z,17.90
2022-10-11T01:32:13.575Z,20.02
2022-10-11T01:35:30.440Z,18.45
2022-10-11T01:38:41.093Z,21.23
2022-10-11T01:41:47.601Z,20.38
2022-10-11T01:44:51.369Z,19.50
2022-10-11T01:48:03.790Z,18.13
2022-10-11T01:51:05.458Z,18.00
2022-10-11T01:54:56.643Z,16.00
2022-10-11T01:58:02.206Z,21.95
2022-10-11T02:01:26.970Z,18.00
2022-10-11T02:04:42.721Z,18.75
2022-10-11T02:08:02.624Z,19.52
2022-10-11T02:11:10.423Z,19.25
2022-10-11T02:14:18.405Z,16.83
2022-10-11T02:17:23.869Z,17.60
2022-10-11T02:20:28.687Z,17.65
2022-10-11T02:23:35.297Z,17.83
2022-10-11T02:26:41.803Z,18.67
2022-10-11T02:29:46.344Z,19.20
2022-10-11T02:32:50.393Z,20.35
2022-10-11T02:36:03.415Z,15.77
2022-10-11T02:39:13.195Z,17.55
2022-10-11T02:42:19.398Z,17.30
2022-10-11T02:45:39.122Z,20.10
2022-10-11T02:48:40.806Z,17.42
2022-10-11T02:51:42.576Z,18.42
2022-10-11T02:54:44.198Z,19.53
2022-10-11T02:57:46.408Z,18.83
2022-10-11T03:00:48.478Z,19.30
2022-10-11T03:03:50.720Z,18.42
2022-10-11T03:06:52.379Z,16.57
2022-10-11T03:09:54.054Z,19.83
2022-10-11T03:12:55.707Z,15.95
2022-10-11T03:16:03.239Z,19.52
2022-10-11T03:19:05.416Z,20.00
2022-10-11T03:22:07.232Z,16.00
2022-10-11T03:25:09.310Z,16.75
2022-10-11T03:28:14.121Z,15.88
2022-10-11T03:31:16.010Z,18.70
2022-10-11T03:34:17.679Z,17.05
2022-10-11T03:37:19.318Z,17.00
2022-10-11T03:40:20.954Z,18.08
2022-10-11T03:43:22.745Z,16.60
2022-10-11T03:46:24.423Z,19.60
2022-10-11T03:49:26.069Z,17.05
2022-10-11T03:52:27.858Z,18.65
2022-10-11T03:55:29.473Z,18.60
2022-10-11T03:58:31.293Z,18.92
2022-10-11T04:01:37.960Z,18.35
2022-10-11T04:04:39.697Z,20.05
2022-10-11T04:07:41.381Z,16.37
2022-10-11T04:10:43.285Z,18.98
2022-10-11T04:13:44.886Z,18.98
2022-10-11T04:16:46.539Z,16.40
2022-10-11T04:19:48.291Z,17.90
2022-10-11T04:22:50.439Z,17.67
2022-10-11T04:25:52.190Z,14.85
2022-10-11T04:28:54.193Z,16.10
2022-10-11T04:31:55.962Z,15.65
2022-10-11T04:34:57.580Z,14.95
2022-10-11T04:37:59.187Z,18.73
2022-10-11T04:41:09.056Z,18.17
2022-10-11T04:44:10.693Z,15.75
2022-10-11T04:47:12.466Z,16.67
2022-10-11T04:50:14.281Z,15.60
2022-10-11T04:53:15.903Z,14.90
2022-10-11T04:56:18.624Z,15.77
2022-10-11T04:59:20.481Z,17.23
2022-10-11T05:02:22.305Z,17.40
2022-10-11T05:05:24.256Z,16.67
2022-10-11T05:08:26.553Z,14.32
2022-10-11T05:11:28.381Z,15.73
2022-10-11T05:14:30.095Z,16.55
2022-10-11T05:17:32.220Z,14.17
2022-10-11T05:20:33.826Z,15.85
2022-10-11T05:23:37.150Z,16.65
2022-10-11T05:26:38.858Z,15.43
2022-10-11T05:29:40.533Z,14.97
2022-10-11T05:32:42.193Z,17.15
2022-10-11T05:35:44.316Z,20.00
2022-10-11T05:38:45.963Z,19.58
2022-10-11T05:41:47.630Z,20.63
2022-10-11T05:44:49.204Z,22.52
2022-10-11T05:47:50.949Z,21.23
2022-10-11T05:50:53.147Z,19.85
2022-10-11T05:53:54.757Z,19.73
2022-10-11T05:56:56.359Z,20.98
2022-10-11T05:59:58.110Z,18.63
2022-10-11T06:02:59.737Z,19.00
2022-10-11T06:06:04.923Z,20.47
2022-10-11T06:09:06.894Z,20.52
2022-10-11T06:12:08.538Z,18.98
2022-10-11T06:15:11.288Z,20.45
2022-10-11T06:18:12.982Z,20.67
2022-10-11T06:21:15.575Z,24.80
2022-10-11T06:24:17.516Z,26.27
2022-10-11T06:27:19.147Z,22.35
2022-10-11T06:30:20.815Z,22.00
2022-10-11T06:33:22.851Z,21.73
2022-10-11T06:36:24.994Z,19.58
2022-10-11T06:39:27.047Z,18.98
2022-10-11T06:42:28.685Z,18.73
2022-10-11T06:45:30.371Z,19.60
2022-10-11T06:48:32.039Z,19.75
2022-10-11T06:51:35.411Z,18.10
2022-10-11T06:54:40.066Z,20.30
2022-10-11T06:57:44.153Z,17.80
2022-10-11T07:00:45.863Z,17.45
2022-10-11T07:03:48.254Z,17.35
2022-10-11T07:06:50.109Z,17.60
2022-10-11T07:09:51.705Z,18.58
2022-10-11T07:12:53.517Z,18.60
2022-10-11T07:15:55.371Z,15.55
2022-10-11T07:19:00.783Z,19.97
2022-10-11T07:22:02.813Z,22.30
2022-10-11T07:25:04.983Z,25.50
2022-10-11T07:28:06.613Z,19.95
2022-10-11T07:31:20.794Z,22.77
2022-10-11T07:34:22.967Z,22.73
2022-10-11T07:37:24.585Z,22.73
2022-10-11T07:40:26.476Z,27.08
2022-10-11T07:43:28.141Z,33.60
2022-10-11T07:46:30.515Z,27.58
2022-10-11T07:49:32.442Z,23.50
2022-10-11T07:52:35.543Z,26.92
2022-10-11T07:55:40.999Z,29.63
2022-10-11T07:58:43.077Z,26.77
2022-10-11T08:01:44.737Z,26.63
2022-10-11T08:04:46.377Z,25.80
2022-10-11T08:07:48.817Z,23.35
2022-10-11T08:10:50.465Z,26.10
2022-10-11T08:13:52.630Z,19.20
2022-10-11T08:16:54.224Z,24.02
2022-10-11T08:19:56.581Z,20.65
2022-10-11T08:22:58.188Z,22.73
2022-10-11T08:25:59.819Z,25.77
2022-10-11T08:29:05.336Z,22.88
2022-10-11T08:32:07.169Z,20.60
2022-10-11T08:35:08.901Z,22.20
2022-10-11T08:38:10.761Z,22.08
2022-10-11T08:41:51.152Z,23.70
2022-10-11T08:45:10.433Z,23.25
2022-10-11T08:48:17.722Z,21.80
2022-10-11T08:51:35.329Z,23.40
2022-10-11T08:54:52.261Z,21.38
2022-10-11T08:57:56.589Z,17.10
2022-10-11T09:01:00.835Z,19.35
2022-10-11T09:04:03.635Z,17.98
2022-10-11T09:07:17.515Z,16.33
2022-10-11T09:10:44.163Z,20.33
2022-10-11T09:14:15.497Z,20.50
2022-10-11T09:17:31.550Z,20.40
2022-10-11T09:20:33.158Z,18.70
2022-10-11T09:23:53.842Z,20.30
2022-10-11T09:27:12.939Z,20.93
2022-10-11T09:30:17.524Z,16.13
2022-10-11T09:33:19.105Z,18.38
2022-10-11T09:36:28.485Z,18.10
2022-10-11T09:39:33.345Z,18.48
2022-10-11T09:42:34.968Z,17.10
2022-10-11T09:45:36.802Z,17.40
2022-10-11T09:48:41.995Z,17.38
2022-10-11T09:51:49.702Z,19.15
2022-10-11T09:54:55.274Z,13.25
2022-10-11T09:57:56.978Z,17.90
2022-10-11T10:01:12.932Z,15.63
2022-10-11T10:04:17.138Z,14.98
2022-10-11T10:07:18.931Z,19.75
2022-10-11T10:10:34.079Z,19.60
2022-10-11T10:13:56.021Z,13.23
2022-10-11T10:17:06.774Z,19.58
2022-10-11T10:20:21.194Z,19.88
2022-10-11T10:23:31.519Z,17.27
2022-10-11T10:26:34.061Z,18.63
2022-10-11T10:29:35.994Z,16.40
2022-10-11T10:32:48.918Z,15.20
2022-10-11T10:36:29.228Z,16.08
2022-10-11T10:39:50.889Z,16.95
2022-10-11T10:42:52.772Z,16.17
2022-10-11T10:46:09.965Z,16.00
2022-10-11T10:49:54.094Z,17.92
2022-10-11T10:53:23.834Z,14.95
2022-10-11T10:56:36.718Z,17.42
2022-10-11T11:00:02.376Z,14.25
2022-10-11T11:03:11.184Z,13.93
2022-10-11T11:06:36.568Z,14.48
2022-10-11T11:09:51.365Z,13.55
2022-10-11T11:13:12.778Z,15.75
2022-10-11T11:16:26.278Z,12.93
2022-10-11T11:20:06.913Z,13.30
2022-10-11T11:23:23.386Z,21.77
2022-10-11T11:26:45.702Z,16.23
2022-10-11T11:29:55.241Z,16.50
2022-10-11T11:33:34.494Z,18.50
2022-10-11T11:36:41.983Z,16.05
2022-10-11T11:39:50.450Z,18.08
2022-10-11T11:42:57.112Z,15.00
2022-10-11T11:46:09.529Z,15.23
2022-10-11T11:49:18.104Z,20.03
2022-10-11T11:52:36.147Z,14.00
2022-10-11T11:55:50.380Z,14.32
2022-10-11T11:59:03.286Z,15.65
2022-10-11T12:02:31.232Z,14.55
2022-10-11T12:05:35.483Z,16.57
2022-10-11T12:08:38.758Z,15.68
2022-10-11T12:11:46.079Z,17.52
2022-10-11T12:14:47.791Z,18.23
2022-10-11T12:17:58.550Z,15.00
2022-10-11T12:21:17.576Z,22.40
2022-10-11T12:24:19.146Z,15.20
2022-10-11T12:27:40.816Z,17.35
2022-10-11T12:30:48.343Z,18.65
2022-10-11T12:34:18.588Z,13.63
2022-10-11T12:37:20.183Z,11.70
2022-10-11T12:40:42.009Z,14.38
2022-10-11T12:43:49.604Z,12.45
2022-10-11T12:46:51.459Z,13.77
2022-10-11T12:49:57.476Z,11.93
2022-10-11T12:53:28.749Z,10.60
2022-10-11T12:56:48.222Z,12.65
2022-10-11T12:59:50.257Z,15.85
2022-10-11T13:02:52.060Z,13.68
2022-10-11T13:06:04.755Z,11.18
2022-10-11T13:09:29.855Z,10.97
2022-10-11T13:12:40.393Z,11.95
2022-10-11T13:15:43.836Z,10.13
2022-10-11T13:18:48.896Z,9.95
2022-10-11T13:21:54.824Z,12.25
2022-10-11T13:24:58.018Z,9.97
2022-10-11T13:27:59.939Z,10.73
2022-10-11T13:31:01.764Z,12.55
2022-10-11T13:34:03.688Z,10.73
2022-10-11T13:37:06.550Z,12.35
2022-10-11T13:40:14.415Z,13.03
2022-10-11T13:43:19.412Z,13.02
2022-10-11T13:46:24.342Z,10.95
2022-10-11T13:49:37.000Z,10.85
2022-10-11T13:52:53.419Z,10.40
2022-10-11T13:55:58.998Z,12.63
2022-10-11T13:59:01.559Z,12.32
2022-10-11T14:02:04.468Z,10.90
2022-10-11T14:05:06.714Z,11.15
2022-10-11T14:08:31.353Z,10.18
2022-10-11T14:11:36.978Z,12.60
2022-10-11T14:14:42.862Z,11.93
2022-10-11T14:17:45.845Z,12.90
2022-10-11T14:20:47.584Z,11.90
2022-10-11T14:23:56.793Z,12.77
2022-10-11T14:26:59.151Z,13.17
2022-10-11T14:30:24.172Z,12.27
2022-10-11T14:33:23.153Z,12.43
2022-10-11T14:36:26.904Z,15.68
2022-10-11T14:39:31.898Z,9.60
2022-10-11T14:42:33.618Z,10.97
2022-10-11T14:45:35.390Z,15.65
2022-10-11T14:48:54.513Z,11.95
2022-10-11T14:51:58.898Z,14.07
2022-10-11T14:55:00.852Z,13.82
2022-10-11T14:58:03.041Z,11.50
2022-10-11T15:01:04.963Z,11.38
2022-10-11T15:04:06.770Z,10.93
2022-10-11T15:07:10.367Z,9.25
2022-10-11T15:10:31.687Z,11.77
2022-10-11T15:13:33.444Z,13.37
2022-10-11T15:16:36.520Z,12.60
2022-10-11T15:19:38.373Z,11.82
2022-10-11T15:22:40.154Z,12.88
2022-10-11T15:25:42.601Z,9.43
2022-10-11T15:28:45.025Z,10.13
2022-10-11T15:31:46.951Z,9.02
2022-10-11T15:34:48.699Z,12.52
2022-10-11T15:37:56.026Z,10.70
2022-10-11T15:40:59.366Z,13.18
2022-10-11T15:44:03.556Z,9.67
2022-10-11T15:47:06.841Z,12.35
2022-10-11T15:50:19.071Z,11.75
2022-10-11T15:53:25.729Z,13.65
2022-10-11T15:56:31.593Z,12.35
2022-10-11T15:59:35.391Z,13.90
2022-10-11T16:02:37.247Z,16.08
2022-10-11T16:05:39.575Z,14.52
2022-10-11T16:08:41.399Z,15.15
2022-10-11T16:11:43.282Z,15.05
2022-10-11T16:14:47.196Z,16.23
2022-10-11T16:17:49.928Z,16.00
2022-10-11T16:20:52.524Z,15.88
2022-10-11T16:23:54.285Z,17.27
2022-10-11T16:26:56.276Z,17.45
2022-10-11T16:30:00.987Z,16.00
2022-10-11T16:33:02.757Z,16.88
2022-10-11T16:36:26.124Z,16.13
2022-10-11T16:39:28.095Z,17.50
2022-10-11T16:42:29.865Z,18.38
2022-10-11T16:45:32.489Z,18.47
2022-10-11T16:48:34.171Z,18.48
2022-10-11T16:51:35.844Z,19.08
2022-10-11T16:54:38.388Z,21.13
2022-10-11T16:57:40.069Z,17.23
2022-10-11T17:00:42.901Z,18.90
2022-10-11T17:03:49.332Z,19.73
2022-10-11T17:06:52.005Z,21.25
2022-10-11T17:09:56.195Z,18.00
2022-10-11T17:12:57.940Z,16.83
2022-10-11T17:15:59.788Z,19.05
2022-10-11T17:19:02.131Z,22.80
2022-10-11T17:22:04.285Z,19.67
2022-10-11T17:25:07.042Z,19.42
2022-10-11T17:28:09.014Z,16.80
2022-10-11T17:31:10.949Z,17.67
2022-10-11T17:34:14.476Z,19.67
2022-10-11T17:37:16.197Z,18.13
2022-10-11T17:40:18.617Z,21.13
2022-10-11T17:43:20.272Z,16.93
2022-10-11T17:46:22.660Z,20.63
2022-10-11T17:49:24.372Z,18.45
2022-10-11T17:52:26.067Z,19.23
2022-10-11T17:55:31.067Z,19.13
2022-10-11T17:58:34.458Z,19.60
2022-10-11T18:01:37.475Z,22.33
2022-10-11T18:04:39.326Z,19.35
2022-10-11T18:07:40.983Z,20.05
2022-10-11T18:10:47.378Z,20.52
2022-10-11T18:13:50.928Z,23.63
2022-10-11T18:16:52.713Z,21.65
2022-10-11T18:19:54.387Z,20.65
2022-10-11T18:22:56.054Z,20.15
2022-10-11T18:26:03.972Z,25.83
2022-10-11T18:29:05.886Z,23.38
2022-10-11T18:32:07.565Z,21.05
2022-10-11T18:35:09.809Z,21.90
2022-10-11T18:38:11.450Z,20.50
2022-10-11T18:41:16.122Z,20.07
2022-10-11T18:44:18.153Z,21.15
2022-10-11T18:47:20.026Z,27.83
2022-10-11T18:50:22.891Z,22.70
2022-10-11T18:53:25.181Z,24.13
2022-10-11T18:56:28.690Z,29.73
2022-10-11T18:59:30.571Z,26.60
2022-10-11T19:02:32.479Z,27.40
2022-10-11T19:05:34.182Z,29.52
2022-10-11T19:08:35.887Z,31.20
2022-10-11T19:11:38.462Z,25.17
2022-10-11T19:14:40.658Z,20.45
2022-10-11T19:17:42.349Z,21.40
2022-10-11T19:20:44.070Z,22.05
2022-10-11T19:23:47.506Z,19.93
2022-10-11T19:26:49.565Z,24.27
2022-10-11T19:29:51.264Z,22.67
2022-10-11T19:32:52.960Z,20.23
2022-10-11T19:35:56.274Z,22.10
2022-10-11T19:38:58.187Z,18.73
2022-10-11T19:42:00.912Z,22.58
2022-10-11T19:45:02.627Z,21.98
2022-10-11T19:48:04.456Z,24.50
2022-10-11T19:51:09.019Z,21.65
2022-10-11T19:54:13.038Z,22.47
2022-10-11T19:57:14.753Z,20.88
2022-10-11T20:00:16.912Z,25.45
2022-10-11T20:03:18.629Z,20.73
2022-10-11T20:06:22.103Z,21.15
2022-10-11T20:09:29.577Z,21.17
2022-10-11T20:12:33.802Z,22.08
2022-10-11T20:15:37.488Z,23.63
2022-10-11T20:18:39.434Z,26.23
2022-10-11T20:21:42.022Z,22.23
2022-10-11T20:24:43.742Z,20.48
2022-10-11T20:27:46.401Z,21.15
2022-10-11T20:30:48.058Z,25.75
2022-10-11T20:33:50.282Z,23.17
2022-10-11T20:36:52.257Z,24.27
2022-10-11T20:39:53.935Z,22.13
2022-10-11T20:42:55.626Z,23.25
2022-10-11T20:46:00.344Z,23.50
2022-10-11T20:49:07.947Z,25.60
2022-10-11T20:52:09.607Z,25.90
2022-10-11T20:55:11.350Z,27.38
2022-10-11T20:58:13.016Z,24.73
2022-10-11T21:01:17.030Z,27.65
2022-10-11T21:04:20.618Z,25.80
2022-10-11T21:07:22.312Z,23.55
2022-10-11T21:10:23.981Z,25.75
2022-10-11T21:13:25.746Z,23.92
2022-10-11T21:16:28.416Z,24.53
2022-10-11T21:19:30.151Z,25.75
2022-10-11T21:22:33.164Z,27.23
2022-10-11T21:25:36.127Z,26.90
2022-10-11T21:28:38.643Z,26.70
2022-10-11T21:31:40.883Z,25.00
2022-10-11T21:34:42.666Z,23.30
2022-10-11T21:37:44.334Z,26.80
2022-10-11T21:40:46.004Z,24.30
2022-10-11T21:43:48.574Z,25.53
2022-10-11T21:47:07.403Z,26.33
2022-10-11T21:50:09.782Z,26.98
2022-10-11T21:53:11.440Z,22.92
2022-10-11T21:56:13.239Z,25.43
2022-10-11T21:59:14.901Z,26.20
2022-10-11T22:02:16.638Z,27.40
2022-10-11T22:05:18.823Z,27.67
2022-10-11T22:08:20.850Z,26.17
2022-10-11T22:11:22.581Z,29.38
2022-10-11T22:14:24.949Z,26.48
2022-10-11T22:17:26.625Z,27.75
2022-10-11T22:20:28.414Z,29.13
2022-10-11T22:23:30.387Z,28.27
2022-10-11T22:26:35.161Z,27.75
2022-10-11T22:29:36.833Z,26.48
2022-10-11T22:32:38.540Z,27.63
2022-10-11T22:35:40.364Z,30.25
2022-10-11T22:38:43.503Z,23.02
2022-10-11T22:41:45.176Z,24.83
2022-10-11T22:44:49.384Z,27.90
2022-10-11T22:47:51.040Z,27.95
2022-10-11T22:50:52.926Z,27.40
2022-10-11T22:53:54.584Z,22.45
2022-10-11T22:56:56.296Z,29.35
2022-10-11T22:59:58.001Z,27.65
2022-10-11T23:02:59.714Z,26.23
2022-10-11T23:06:01.446Z,31.60
2022-10-11T23:09:03.229Z,28.33
2022-10-11T23:12:05.156Z,29.30
2022-10-11T23:15:10.018Z,29.05
2022-10-11T23:18:11.772Z,28.17
2022-10-11T23:21:13.525Z,28.42
2022-10-11T23:24:15.222Z,29.17
2022-10-11T23:27:16.928Z,38.33
2022-10-11T23:30:18.595Z,26.70
2022-10-11T23:33:20.513Z,33.20
2022-10-11T23:36:24.651Z,33.13
2022-10-11T23:39:26.375Z,27.85
2022-10-11T23:42:28.030Z,30.97
2022-10-11T23:45:29.767Z,30.05
2022-10-11T23:48:31.529Z,32.70
2022-10-11T23:51:33.265Z,35.97
2022-10-11T23:54:35.015Z,30.50
2022-10-11T23:57:36.947Z,34.10
